Time;durP1;ratioP1;P1;durP2;ratioP2;P2;SDS_P1;SDS_P2;PMS_P1;PMS_P2;Temp;Humidity;BMP_temperature;BMP_pressure;BME280_temperature;BME280_humidity;BME280_pressure;Samples;Min_cycle;Max_cycle;Signal;HPM_P1;HPM_P2
2023/06/15 00:02:26;;;;;;;4.87;3.50;;;20.70;99.90;;;;;;5025326;28;20267;-57
2023/06/15 00:04:54;;;;;;;3.93;3.40;;;20.70;99.90;;;;;;5020244;28;20229;-60
2023/06/15 00:07:21;;;;;;;3.90;3.53;;;20.60;99.90;;;;;;5025986;28;20203;-59
2023/06/15 00:09:47;;;;;;;4.17;2.97;;;20.40;99.90;;;;;;5022879;28;20204;-59
2023/06/15 00:12:14;;;;;;;4.07;3.77;;;20.40;99.90;;;;;;5026257;28;20763;-57
2023/06/15 00:14:41;;;;;;;3.90;3.60;;;20.40;99.90;;;;;;5020034;28;20251;-57
2023/06/15 00:17:11;;;;;;;7.43;4.33;;;20.50;99.90;;;;;;5022377;28;20243;-59
2023/06/15 00:19:41;;;;;;;4.03;3.30;;;20.50;99.90;;;;;;5021921;28;20287;-57
2023/06/15 00:22:15;;;;;;;3.67;3.37;;;20.50;99.90;;;;;;5025531;28;20788;-58
2023/06/15 00:24:43;;;;;;;4.40;3.53;;;20.50;99.90;;;;;;5020601;28;20201;-57
2023/06/15 00:27:10;;;;;;;3.53;3.23;;;20.50;99.90;;;;;;5022950;28;20228;-58
2023/06/15 00:29:38;;;;;;;4.33;3.57;;;20.40;99.90;;;;;;5022772;28;20661;-57
2023/06/15 00:32:05;;;;;;;6.27;3.50;;;20.50;99.90;;;;;;5025141;28;20220;-58
2023/06/15 00:34:35;;;;;;;4.00;3.17;;;20.60;99.90;;;;;;5024233;28;20556;-61
2023/06/15 00:37:02;;;;;;;3.77;3.47;;;20.50;99.90;;;;;;5017810;28;20994;-60
2023/06/15 00:39:30;;;;;;;7.67;3.37;;;20.50;99.90;;;;;;5018972;28;20213;-57
2023/06/15 00:41:57;;;;;;;4.23;3.23;;;20.50;99.90;;;;;;5023581;28;20216;-59
2023/06/15 00:44:26;;;;;;;4.80;3.73;;;20.40;99.90;;;;;;5024110;28;20298;-57
2023/06/15 00:46:54;;;;;;;3.30;3.00;;;20.40;99.90;;;;;;5024544;28;20227;-57
2023/06/15 00:49:21;;;;;;;4.43;3.30;;;20.50;99.90;;;;;;5023701;28;20591;-57
2023/06/15 00:51:48;;;;;;;5.00;3.43;;;20.50;99.90;;;;;;5023734;28;20205;-60
2023/06/15 00:54:23;;;;;;;3.87;3.57;;;20.50;99.90;;;;;;5021742;28;20665;-58
2023/06/15 00:56:52;;;;;;;5.10;3.40;;;20.50;99.90;;;;;;5020347;28;20205;-58
2023/06/15 00:59:19;;;;;;;3.90;3.50;;;20.50;99.90;;;;;;5018248;28;20212;-58
2023/06/15 01:01:48;;;;;;;4.90;3.73;;;20.40;99.90;;;;;;5017284;28;20200;-57
2023/06/15 01:04:16;;;;;;;4.13;3.73;;;20.50;99.90;;;;;;5017783;28;20623;-59
2023/06/15 01:06:51;;;;;;;4.23;3.63;;;20.40;99.90;;;;;;5016904;28;20224;-57
2023/06/15 01:09:20;;;;;;;4.10;3.50;;;20.20;99.90;;;;;;5024439;28;20278;-58
2023/06/15 01:11:54;;;;;;;6.90;3.30;;;20.20;99.90;;;;;;5021105;28;20232;-60
2023/06/15 01:14:26;;;;;;;4.20;3.63;;;20.00;99.90;;;;;;5019069;28;20204;-58
2023/06/15 01:16:59;;;;;;;4.17;3.77;;;19.90;99.90;;;;;;5017487;28;20768;-56
2023/06/15 01:19:34;;;;;;;4.53;3.23;;;19.70;99.90;;;;;;5020704;28;20339;-57
2023/06/15 01:22:19;;;;;;;8.27;3.30;;;19.80;99.90;;;;;;5019037;28;20216;-57
2023/06/15 01:25:03;;;;;;;4.10;3.73;;;19.80;99.90;;;;;;5018818;28;20200;-56
2023/06/15 01:27:33;;;;;;;9.77;4.23;;;19.80;99.90;;;;;;5030841;28;20591;-59
2023/06/15 01:30:04;;;;;;;5.33;3.60;;;19.50;99.90;;;;;;5016578;28;20201;-59
2023/06/15 01:32:32;;;;;;;4.13;3.57;;;19.70;99.90;;;;;;5019376;28;20197;-57
2023/06/15 01:35:00;;;;;;;6.30;3.87;;;19.90;99.90;;;;;;5012804;28;20189;-57
2023/06/15 01:37:27;;;;;;;3.80;3.50;;;19.80;99.90;;;;;;5020864;28;21199;-59
2023/06/15 01:39:57;;;;;;;4.70;4.30;;;19.60;99.90;;;;;;5018272;28;20773;-57
2023/06/15 01:42:24;;;;;;;3.63;3.33;;;19.60;99.90;;;;;;5024962;28;20215;-57
2023/06/15 01:44:57;;;;;;;5.03;3.73;;;19.60;99.90;;;;;;5020713;28;20945;-57
2023/06/15 01:47:26;;;;;;;4.53;3.43;;;19.70;99.90;;;;;;5024642;28;20211;-57
2023/06/15 01:49:53;;;;;;;3.63;3.30;;;19.60;99.90;;;;;;5023648;28;20244;-59
2023/06/15 01:52:23;;;;;;;3.27;3.07;;;19.50;99.90;;;;;;5013142;28;20208;-59
2023/06/15 01:54:51;;;;;;;5.60;3.57;;;19.50;99.90;;;;;;5022915;28;20334;-60
2023/06/15 01:57:27;;;;;;;6.00;3.67;;;19.50;99.90;;;;;;5019011;28;20201;-57
2023/06/15 02:00:07;;;;;;;5.47;3.67;;;19.50;99.90;;;;;;5021786;28;20599;-57
2023/06/15 02:02:34;;;;;;;4.40;4.00;;;19.50;99.90;;;;;;5019356;28;20207;-57
2023/06/15 02:05:03;;;;;;;5.13;3.53;;;19.40;99.90;;;;;;5017836;28;20204;-57
2023/06/15 02:07:30;;;;;;;3.80;3.50;;;19.20;99.90;;;;;;5021415;28;20203;-57
2023/06/15 02:09:57;;;;;;;7.40;3.70;;;19.30;99.90;;;;;;5015467;28;20422;-57
2023/06/15 02:12:24;;;;;;;6.93;3.77;;;19.20;99.90;;;;;;5021091;28;20231;-57
2023/06/15 02:14:51;;;;;;;5.83;3.53;;;19.20;99.90;;;;;;5019813;28;20200;-58
2023/06/15 02:17:24;;;;;;;3.80;3.43;;;19.10;99.90;;;;;;5017664;28;20284;-57
2023/06/15 02:19:51;;;;;;;3.73;3.40;;;19.00;99.90;;;;;;5024129;28;20583;-60
2023/06/15 02:22:18;;;;;;;6.43;3.60;;;19.00;99.90;;;;;;5021515;28;20665;-57
2023/06/15 02:24:45;;;;;;;6.33;3.87;;;19.00;99.90;;;;;;5018350;28;20729;-58
2023/06/15 02:27:15;;;;;;;3.67;3.37;;;18.90;99.90;;;;;;5019361;28;20224;-59
2023/06/15 02:29:43;;;;;;;8.67;3.83;;;18.90;99.90;;;;;;5019845;28;20221;-58
2023/06/15 02:32:25;;;;;;;7.07;3.80;;;18.90;99.90;;;;;;5019912;28;20573;-57
2023/06/15 02:34:53;;;;;;;4.43;4.00;;;19.00;99.90;;;;;;5017018;28;20194;-59
2023/06/15 02:37:20;;;;;;;5.23;3.50;;;19.00;99.90;;;;;;5019727;28;20208;-58
2023/06/15 02:39:47;;;;;;;3.97;3.57;;;19.00;99.90;;;;;;5016084;28;20200;-58
2023/06/15 02:42:14;;;;;;;5.83;3.57;;;19.00;99.90;;;;;;5019256;28;22242;-60
2023/06/15 02:44:41;;;;;;;4.60;4.20;;;19.00;99.90;;;;;;5017100;28;20672;-59
2023/06/15 02:47:08;;;;;;;4.77;3.97;;;19.10;99.90;;;;;;5021272;28;20204;-57
2023/06/15 02:49:35;;;;;;;4.40;3.77;;;19.00;99.90;;;;;;5019294;28;20219;-57
2023/06/15 02:52:03;;;;;;;5.03;3.93;;;18.90;99.90;;;;;;5021609;28;20299;-57
2023/06/15 02:54:29;;;;;;;4.47;4.00;;;18.90;99.90;;;;;;5020093;28;20196;-58
2023/06/15 02:56:57;;;;;;;5.80;4.30;;;19.00;99.90;;;;;;5019268;28;20270;-58
2023/06/15 02:59:25;;;;;;;5.27;4.10;;;19.00;99.90;;;;;;5015651;28;20364;-60
2023/06/15 03:01:53;;;;;;;4.40;4.00;;;19.00;99.90;;;;;;5016819;28;20219;-58
2023/06/15 03:04:23;;;;;;;6.70;4.07;;;19.00;99.90;;;;;;5018131;28;20211;-57
2023/06/15 03:06:50;;;;;;;6.13;4.23;;;19.00;99.90;;;;;;5020715;28;20230;-61
2023/06/15 03:09:18;;;;;;;5.10;4.50;;;19.00;99.90;;;;;;5019084;28;20225;-59
2023/06/15 03:11:45;;;;;;;4.53;3.67;;;19.00;99.90;;;;;;5023723;28;20239;-57
2023/06/15 03:14:12;;;;;;;6.03;3.83;;;18.90;99.90;;;;;;5017928;28;20227;-60
2023/06/15 03:16:41;;;;;;;4.33;3.93;;;18.90;99.90;;;;;;5018032;28;20211;-59
2023/06/15 03:19:11;;;;;;;4.87;4.30;;;18.80;99.90;;;;;;5016901;28;20217;-60
2023/06/15 03:21:41;;;;;;;6.80;4.40;;;18.80;99.90;;;;;;5025107;28;20204;-57
2023/06/15 03:24:09;;;;;;;4.83;4.33;;;18.80;99.90;;;;;;5022928;28;20945;-58
2023/06/15 03:26:42;;;;;;;6.47;4.43;;;18.90;99.90;;;;;;5024525;28;20287;-57
2023/06/15 03:29:13;;;;;;;4.53;3.97;;;18.90;99.90;;;;;;5020977;28;20316;-58
2023/06/15 03:31:56;;;;;;;7.40;4.50;;;18.90;99.90;;;;;;5018622;28;20445;-57
2023/06/15 03:34:31;;;;;;;8.00;4.67;;;18.80;99.90;;;;;;5016804;28;20232;-58
2023/06/15 03:36:59;;;;;;;6.33;4.50;;;18.70;99.90;;;;;;5001046;28;21823;-58
2023/06/15 03:39:29;;;;;;;4.60;4.20;;;18.70;99.90;;;;;;5021001;28;20208;-58
2023/06/15 03:41:56;;;;;;;7.13;4.23;;;18.70;99.90;;;;;;5019959;28;20295;-58
2023/06/15 03:44:23;;;;;;;4.57;4.17;;;18.80;99.90;;;;;;5016553;28;20691;-62
2023/06/15 03:46:57;;;;;;;5.33;4.63;;;18.80;99.90;;;;;;5019895;28;20945;-58
2023/06/15 03:49:24;;;;;;;5.40;4.57;;;18.80;99.90;;;;;;5015202;28;20228;-58
2023/06/15 03:51:55;;;;;;;5.13;4.10;;;18.70;99.90;;;;;;5022588;28;20827;-58
2023/06/15 03:54:30;;;;;;;5.77;4.60;;;18.70;99.90;;;;;;5019233;28;20656;-61
2023/06/15 03:56:58;;;;;;;5.90;5.30;;;18.60;99.90;;;;;;5018857;28;20259;-60
2023/06/15 03:59:25;;;;;;;6.53;4.67;;;18.70;99.90;;;;;;5019890;28;20211;-59
2023/06/15 04:01:52;;;;;;;6.93;4.70;;;18.70;99.90;;;;;;5020713;28;20338;-56
2023/06/15 04:04:25;;;;;;;4.60;4.20;;;18.70;99.90;;;;;;5019852;28;20328;-60
2023/06/15 04:06:53;;;;;;;4.53;4.13;;;18.70;99.90;;;;;;5014610;28;20212;-59
2023/06/15 04:09:20;;;;;;;5.20;4.70;;;18.70;99.90;;;;;;5014240;28;20667;-58
2023/06/15 04:11:54;;;;;;;6.13;4.97;;;18.70;99.90;;;;;;5017051;28;20240;-58
2023/06/15 04:14:21;;;;;;;6.47;5.27;;;18.60;99.90;;;;;;5011595;28;20208;-58
2023/06/15 04:16:48;;;;;;;8.53;4.97;;;18.60;99.90;;;;;;5020903;28;20583;-57
2023/06/15 04:19:25;;;;;;;6.60;4.63;;;18.60;99.90;;;;;;5017209;28;20248;-65
2023/06/15 04:21:52;;;;;;;6.50;5.10;;;18.70;99.90;;;;;;5017591;28;20219;-58
2023/06/15 04:24:22;;;;;;;7.70;5.03;;;18.60;99.90;;;;;;5016394;28;20212;-59
2023/06/15 04:26:50;;;;;;;6.00;5.07;;;18.60;99.90;;;;;;5016294;28;20211;-58
2023/06/15 04:29:22;;;;;;;6.70;4.93;;;18.60;99.90;;;;;;5016336;28;20291;-58
2023/06/15 04:31:57;;;;;;;5.93;5.27;;;18.60;99.90;;;;;;5021242;28;20223;-59
2023/06/15 04:34:30;;;;;;;6.33;4.90;;;18.60;99.90;;;;;;5016787;28;20230;-58
2023/06/15 04:37:00;;;;;;;8.27;5.27;;;18.70;99.90;;;;;;5016780;28;20216;-60
2023/06/15 04:39:28;;;;;;;6.17;5.57;;;18.70;99.90;;;;;;5016083;28;20211;-61
2023/06/15 04:41:57;;;;;;;6.17;4.77;;;18.70;99.90;;;;;;5019286;28;20208;-58
2023/06/15 04:44:28;;;;;;;7.17;5.33;;;18.80;99.90;;;;;;5019133;28;20257;-58
2023/06/15 04:46:58;;;;;;;5.30;4.73;;;18.80;99.90;;;;;;5019937;28;20216;-58
2023/06/15 04:49:25;;;;;;;6.87;4.90;;;18.80;99.90;;;;;;5020369;28;20237;-58
2023/06/15 04:51:56;;;;;;;6.87;6.17;;;18.80;99.90;;;;;;5021707;28;20204;-57
2023/06/15 04:54:25;;;;;;;6.93;5.90;;;18.80;99.90;;;;;;5008851;28;20258;-57
2023/06/15 04:56:58;;;;;;;5.83;5.33;;;18.90;99.90;;;;;;5014592;28;20203;-59
2023/06/15 04:59:28;;;;;;;6.43;5.47;;;18.90;99.90;;;;;;5015697;28;20255;-57
2023/06/15 05:01:58;;;;;;;6.83;6.10;;;19.00;99.90;;;;;;5016507;28;20737;-57
2023/06/15 05:04:25;;;;;;;7.50;6.03;;;19.10;99.90;;;;;;5016681;28;20211;-57
2023/06/15 05:07:10;;;;;;;7.93;5.33;;;19.30;99.90;;;;;;5019924;28;20237;-57
2023/06/15 05:09:40;;;;;;;8.20;5.63;;;19.40;99.90;;;;;;5013775;28;20266;-59
2023/06/15 05:12:14;;;;;;;6.93;5.60;;;19.50;99.90;;;;;;5018242;28;20734;-58
2023/06/15 05:14:50;;;;;;;6.23;5.63;;;19.60;99.90;;;;;;5017426;28;20199;-57
2023/06/15 05:17:23;;;;;;;6.70;6.00;;;19.80;99.90;;;;;;5014945;28;20294;-58
2023/06/15 05:19:56;;;;;;;7.10;5.80;;;20.00;99.90;;;;;;5017656;28;20211;-60
2023/06/15 05:22:23;;;;;;;10.17;5.47;;;20.10;99.90;;;;;;5010001;28;20700;-58
2023/06/15 05:24:50;;;;;;;12.07;5.90;;;20.20;99.90;;;;;;5014987;28;20653;-58
2023/06/15 05:27:20;;;;;;;9.07;5.43;;;20.00;99.90;;;;;;5021246;28;20361;-57
2023/06/15 05:29:48;;;;;;;6.23;5.40;;;20.00;99.90;;;;;;5022885;28;20243;-57
2023/06/15 05:32:15;;;;;;;8.10;5.67;;;20.10;99.90;;;;;;5011940;28;20255;-58
2023/06/15 05:34:46;;;;;;;8.17;5.90;;;20.00;99.90;;;;;;5016626;28;20207;-57
2023/06/15 05:37:13;;;;;;;8.43;6.47;;;20.20;99.90;;;;;;5015976;28;20564;-59
2023/06/15 05:39:40;;;;;;;7.13;5.43;;;20.40;99.90;;;;;;5012285;28;20209;-57
2023/06/15 05:42:07;;;;;;;7.53;5.70;;;20.50;99.90;;;;;;5018921;28;20319;-57
2023/06/15 05:44:34;;;;;;;10.20;5.60;;;20.60;99.90;;;;;;5014099;28;20272;-59
2023/06/15 05:47:01;;;;;;;6.40;5.80;;;20.70;99.90;;;;;;5017166;28;20358;-57
2023/06/15 05:49:30;;;;;;;6.27;5.33;;;20.70;99.90;;;;;;5000455;28;20268;-57
2023/06/15 05:51:57;;;;;;;11.93;5.70;;;20.90;99.90;;;;;;5018348;28;20632;-60
2023/06/15 05:54:25;;;;;;;8.43;4.73;;;20.70;99.90;;;;;;5013483;28;20196;-57
2023/06/15 05:56:52;;;;;;;6.93;5.00;;;20.90;99.90;;;;;;5012646;28;20204;-60
2023/06/15 05:59:19;;;;;;;9.73;5.50;;;20.80;99.90;;;;;;5021131;28;20227;-59
2023/06/15 06:01:59;;;;;;;10.57;5.23;;;20.90;99.90;;;;;;4999063;28;20209;-57
2023/06/15 06:04:26;;;;;;;6.03;5.20;;;21.00;99.90;;;;;;5019312;28;20657;-57
2023/06/15 06:06:53;;;;;;;6.63;5.27;;;21.00;99.90;;;;;;5016699;28;20199;-59
2023/06/15 06:09:25;;;;;;;6.47;5.40;;;21.00;99.90;;;;;;5014661;28;20231;-59
2023/06/15 06:11:53;;;;;;;8.53;5.67;;;21.20;99.90;;;;;;5016850;28;20228;-56
2023/06/15 06:14:25;;;;;;;7.83;7.03;;;21.20;99.90;;;;;;4998338;28;20205;-58
2023/06/15 06:16:53;;;;;;;7.17;5.77;;;21.30;99.90;;;;;;5012719;28;20340;-61
2023/06/15 06:19:23;;;;;;;7.03;4.97;;;21.40;99.90;;;;;;5012838;28;20211;-57
2023/06/15 06:21:50;;;;;;;8.23;5.67;;;21.40;99.90;;;;;;5012069;28;20215;-57
2023/06/15 06:24:18;;;;;;;6.67;5.53;;;21.40;99.90;;;;;;5014056;28;20238;-59
2023/06/15 06:26:49;;;;;;;6.83;5.47;;;21.60;99.90;;;;;;4997572;28;20700;-58
2023/06/15 06:29:17;;;;;;;6.63;6.03;;;21.70;99.90;;;;;;4671799;28;10000411;-58
2023/06/15 06:31:44;;;;;;;7.03;5.07;;;21.70;99.90;;;;;;4991400;28;20418;-60
2023/06/15 06:34:12;;;;;;;8.57;6.13;;;21.90;99.90;;;;;;5006038;28;20254;-58
2023/06/15 06:36:48;;;;;;;4.17;3.83;;;22.00;99.90;;;;;;5014887;28;20277;-58
2023/06/15 06:39:16;;;;;;;7.97;6.30;;;22.20;99.90;;;;;;5000279;28;20280;-60
2023/06/15 06:41:45;;;;;;;7.23;5.57;;;22.30;99.90;;;;;;5009862;28;20750;-58
2023/06/15 06:44:14;;;;;;;14.67;6.77;;;22.50;99.90;;;;;;5011560;28;21091;-58
2023/06/15 06:46:42;;;;;;;8.43;6.50;;;22.50;99.90;;;;;;5009572;28;20658;-58
2023/06/15 06:49:15;;;;;;;9.97;6.23;;;22.50;99.90;;;;;;5013182;28;20208;-60
2023/06/15 06:51:42;;;;;;;7.67;6.90;;;22.50;99.90;;;;;;5011214;28;20212;-57
2023/06/15 06:54:09;;;;;;;8.90;6.37;;;22.50;99.90;;;;;;5014908;28;20215;-57
2023/06/15 06:56:36;;;;;;;7.60;5.60;;;22.70;99.90;;;;;;5004646;28;20936;-59
2023/06/15 06:59:03;;;;;;;7.57;6.67;;;22.80;99.90;;;;;;5019677;28;20672;-57
2023/06/15 07:01:30;;;;;;;9.27;6.40;;;23.00;99.90;;;;;;5009379;28;20207;-58
2023/06/15 07:03:57;;;;;;;8.30;5.97;;;23.20;99.90;;;;;;5012010;28;20234;-57
2023/06/15 07:06:24;;;;;;;7.83;5.50;;;23.40;99.90;;;;;;5022620;28;21232;-58
2023/06/15 07:08:51;;;;;;;6.77;4.97;;;23.60;99.90;;;;;;5024293;28;20213;-58
2023/06/15 07:11:26;;;;;;;9.33;5.20;;;23.60;99.90;;;;;;5023867;28;20231;-57
2023/06/15 07:13:53;;;;;;;8.45;6.65;;;23.60;99.90;;;;;;5019804;28;20538;-57
2023/06/15 07:16:24;;;;;;;6.53;5.80;;;24.20;99.90;;;;;;5016676;28;20578;-57
2023/06/15 07:18:51;;;;;;;7.07;4.93;;;24.30;99.90;;;;;;5025217;28;20258;-57
2023/06/15 07:21:18;;;;;;;8.40;5.37;;;24.30;99.90;;;;;;5006942;28;20211;-57
2023/06/15 07:23:45;;;;;;;7.38;5.07;;;24.80;99.90;;;;;;5020256;28;20275;-57
2023/06/15 07:26:20;;;;;;;5.73;5.03;;;25.40;99.90;;;;;;5003609;28;20215;-57
2023/06/15 07:28:47;;;;;;;6.40;4.68;;;25.50;99.90;;;;;;5015330;28;22991;-58
2023/06/15 07:31:14;;;;;;;6.35;5.03;;;25.90;99.90;;;;;;5018215;28;20263;-57
2023/06/15 07:33:41;;;;;;;6.53;4.38;;;26.40;99.90;;;;;;5020012;28;20241;-57
2023/06/15 07:36:08;;;;;;;4.85;4.35;;;26.70;99.90;;;;;;5022683;28;20380;-58
2023/06/15 07:38:37;;;;;;;9.55;4.57;;;27.60;99.90;;;;;;5022193;28;20296;-58
2023/06/15 07:41:04;;;;;;;7.57;5.13;;;28.20;99.90;;;;;;5015885;28;20210;-57
2023/06/15 07:43:35;;;;;;;5.30;4.20;;;27.40;99.90;;;;;;5016143;28;20680;-60
2023/06/15 07:46:02;;;;;;;5.35;3.65;;;27.70;99.90;;;;;;5011181;28;20665;-59
2023/06/15 07:48:30;;;;;;;5.72;3.72;;;28.20;99.90;;;;;;5016242;28;20674;-57
2023/06/15 07:50:57;;;;;;;7.32;3.95;;;28.30;99.90;;;;;;5015578;28;20350;-58
2023/06/15 07:53:24;;;;;;;7.05;3.70;;;28.60;99.90;;;;;;5015707;28;20200;-57
2023/06/15 07:55:51;;;;;;;7.80;3.90;;;29.20;99.90;;;;;;5020995;28;20223;-63
2023/06/15 07:58:18;;;;;;;4.70;3.90;;;28.50;99.90;;;;;;5020049;28;20204;-57
2023/06/15 08:00:45;;;;;;;3.92;3.47;;;29.30;99.90;;;;;;5019391;28;20274;-58
2023/06/15 08:03:12;;;;;;;4.75;3.47;;;29.70;99.90;;;;;;5018022;28;20204;-62
2023/06/15 08:05:40;;;;;;;5.90;3.33;;;29.30;99.90;;;;;;5020892;28;20205;-58
2023/06/15 08:08:07;;;;;;;5.35;3.58;;;29.00;99.90;;;;;;5017623;28;20227;-57
2023/06/15 08:10:34;;;;;;;6.05;3.70;;;28.10;99.90;;;;;;5007950;28;20220;-60
2023/06/15 08:13:01;;;;;;;5.95;3.53;;;27.90;99.90;;;;;;5019088;28;20236;-60
2023/06/15 08:15:28;;;;;;;7.82;4.03;;;28.00;99.90;;;;;;5011816;28;20302;-60
2023/06/15 08:17:55;;;;;;;4.95;2.90;;;28.50;99.90;;;;;;5010201;28;20621;-60
2023/06/15 08:20:22;;;;;;;6.32;3.50;;;28.80;99.90;;;;;;5018964;28;20209;-59
2023/06/15 08:22:49;;;;;;;5.20;3.17;;;29.00;99.90;;;;;;5015995;28;20558;-63
2023/06/15 08:25:15;;;;;;;4.78;2.80;;;28.70;99.90;;;;;;5018183;28;20700;-59
2023/06/15 08:27:42;;;;;;;3.60;3.10;;;29.10;99.90;;;;;;5015000;28;20209;-60
2023/06/15 08:30:10;;;;;;;6.28;3.10;;;29.10;99.90;;;;;;5016536;28;20216;-60
2023/06/15 08:32:37;;;;;;;3.95;3.22;;;29.60;99.90;;;;;;5018368;28;20233;-60
2023/06/15 08:35:04;;;;;;;4.72;3.45;;;29.90;99.90;;;;;;5020112;28;20637;-62
2023/06/15 08:37:32;;;;;;;3.65;2.88;;;29.60;99.90;;;;;;5020889;28;20222;-59
2023/06/15 08:40:04;;;;;;;4.45;2.75;;;29.20;99.90;;;;;;5013788;28;20239;-58
2023/06/15 08:42:33;;;;;;;5.85;2.88;;;29.30;99.90;;;;;;5019715;28;20209;-57
2023/06/15 08:45:04;;;;;;;5.82;2.97;;;30.10;99.90;;;;;;5011905;28;20229;-58
2023/06/15 08:47:33;;;;;;;6.00;3.10;;;30.80;99.90;;;;;;5013468;28;20200;-61
2023/06/15 08:50:02;;;;;;;3.70;2.63;;;30.20;99.90;;;;;;5013050;28;20735;-61
2023/06/15 08:52:33;;;;;;;3.92;2.80;;;30.50;99.90;;;;;;5013115;28;20204;-61
2023/06/15 08:55:01;;;;;;;6.90;3.90;;;31.20;99.90;;;;;;5013947;28;20197;-59
2023/06/15 08:57:29;;;;;;;3.50;2.63;;;31.30;99.90;;;;;;5013526;28;20201;-59
2023/06/15 08:59:56;;;;;;;5.57;3.92;;;31.30;99.90;;;;;;5007130;28;20223;-59
2023/06/15 09:02:25;;;;;;;4.95;2.90;;;30.40;99.90;;;;;;5018006;28;20784;-59
2023/06/15 09:04:53;;;;;;;12.43;3.65;;;31.20;99.90;;;;;;5017218;28;20200;-56
2023/06/15 09:07:21;;;;;;;6.00;3.10;;;30.20;99.90;;;;;;5017416;28;20207;-56
2023/06/15 09:10:14;;;;;;;27.77;6.80;;;29.60;99.90;;;;;;5017099;28;20224;-55
2023/06/15 09:12:56;;;;;;;6.72;3.20;;;31.00;99.90;;;;;;5016895;28;20317;-55
2023/06/15 09:15:30;;;;;;;4.07;2.70;;;30.90;99.90;;;;;;5018106;28;20201;-57
2023/06/15 09:18:02;;;;;;;4.18;2.83;;;31.30;99.90;;;;;;5022611;28;20204;-56
2023/06/15 09:20:31;;;;;;;3.05;2.60;;;31.10;99.90;;;;;;5018602;28;20212;-58
2023/06/15 09:23:02;;;;;;;4.70;2.92;;;31.10;99.90;;;;;;5016478;28;20584;-57
2023/06/15 09:25:33;;;;;;;4.03;3.03;;;30.80;99.90;;;;;;5020054;28;20918;-56
2023/06/15 09:28:04;;;;;;;8.25;3.05;;;31.80;99.90;;;;;;5004256;28;20564;-56
2023/06/15 09:30:35;;;;;;;8.35;3.22;;;30.40;99.90;;;;;;5014784;28;20217;-55
2023/06/15 09:33:15;;;;;;;5.20;2.90;;;30.70;99.90;;;;;;5017133;28;20587;-56
2023/06/15 09:36:00;;;;;;;4.80;2.90;;;29.00;99.90;;;;;;5015976;28;20200;-57
2023/06/15 09:38:30;;;;;;;6.18;3.30;;;29.60;99.90;;;;;;5017708;28;20785;-55
2023/06/15 09:41:07;;;;;;;7.22;3.13;;;28.60;99.90;;;;;;5020590;28;20204;-55
2023/06/15 09:43:38;;;;;;;5.15;3.40;;;27.80;99.90;;;;;;5020373;28;20211;-55
2023/06/15 09:46:11;;;;;;;4.22;3.00;;;28.30;99.90;;;;;;5023183;28;20197;-56
2023/06/15 09:48:57;;;;;;;6.35;3.38;;;28.90;99.90;;;;;;5018619;28;20284;-55
2023/06/15 09:51:33;;;;;;;6.00;3.00;;;28.10;99.90;;;;;;5019475;28;20232;-56
2023/06/15 09:54:03;;;;;;;7.22;3.60;;;27.70;99.90;;;;;;5011889;28;20204;-55
2023/06/15 09:56:35;;;;;;;3.53;3.22;;;27.60;99.90;;;;;;5015936;28;20268;-55
2023/06/15 09:59:02;;;;;;;6.65;3.65;;;28.10;99.90;;;;;;5017658;28;20200;-55
2023/06/15 10:01:37;;;;;;;5.32;3.17;;;28.20;99.90;;;;;;5020800;28;20220;-62
2023/06/15 10:04:04;;;;;;;5.10;3.13;;;27.60;99.90;;;;;;5017987;28;20207;-55
2023/06/15 10:06:33;;;;;;;4.22;3.25;;;27.00;99.90;;;;;;5019524;28;20278;-55
2023/06/15 10:09:02;;;;;;;4.78;3.00;;;26.80;99.90;;;;;;5019509;28;20204;-55
2023/06/15 10:11:30;;;;;;;7.57;3.20;;;26.80;99.90;;;;;;5017074;28;20239;-56
2023/06/15 10:14:09;;;;;;;4.28;2.97;;;26.70;99.90;;;;;;5017235;28;20197;-55
2023/06/15 10:16:38;;;;;;;5.23;3.37;;;26.50;99.90;;;;;;5020286;28;20193;-55
2023/06/15 10:19:10;;;;;;;6.32;3.42;;;26.30;99.90;;;;;;5016953;28;20223;-56
2023/06/15 10:21:42;;;;;;;7.77;3.37;;;26.40;99.90;;;;;;5019707;28;20830;-55
2023/06/15 10:24:12;;;;;;;8.40;3.43;;;26.20;99.90;;;;;;5017930;28;20231;-55
2023/06/15 10:26:40;;;;;;;6.17;2.97;;;25.70;99.90;;;;;;5013651;28;20740;-55
2023/06/15 10:29:23;;;;;;;5.33;3.20;;;25.60;99.90;;;;;;5021155;28;20243;-56
2023/06/15 10:32:47;;;;;;;5.10;3.10;;;25.70;99.90;;;;;;5008472;28;20217;-55
2023/06/15 10:35:25;;;;;;;4.47;3.10;;;26.30;99.90;;;;;;5027247;28;20529;-55
2023/06/15 10:37:55;;;;;;;9.73;3.23;;;26.30;99.90;;;;;;5028633;28;20200;-55
2023/06/15 10:40:32;;;;;;;3.57;2.90;;;26.10;99.90;;;;;;5027815;28;20196;-56
2023/06/15 10:43:02;;;;;;;4.10;3.03;;;25.80;99.90;;;;;;5029713;28;20208;-55
2023/06/15 10:45:33;;;;;;;3.47;2.93;;;25.90;99.90;;;;;;5015048;28;20248;-55
2023/06/15 10:48:03;;;;;;;3.50;3.13;;;25.90;99.90;;;;;;5030174;28;20205;-55
2023/06/15 10:50:41;;;;;;;4.10;2.83;;;26.60;99.90;;;;;;5032656;28;20976;-57
2023/06/15 10:53:28;;;;;;;6.07;3.30;;;27.50;99.90;;;;;;5020835;28;20657;-55
2023/06/15 10:55:56;;;;;;;4.10;2.90;;;28.10;99.90;;;;;;5032376;28;20195;-55
2023/06/15 10:58:27;;;;;;;3.37;3.00;;;28.80;99.90;;;;;;5031142;28;20240;-59
2023/06/15 11:01:22;;;;;;;3.97;2.80;;;29.00;99.90;;;;;;5030578;28;20222;-60
2023/06/15 11:03:54;;;;;;;9.80;4.03;;;30.20;99.90;;;;;;5028008;28;20207;-55
2023/06/15 11:06:30;;;;;;;7.68;2.90;;;29.50;99.90;;;;;;5015921;28;20251;-55
2023/06/15 11:09:12;;;;;;;5.57;3.33;;;29.90;99.90;;;;;;5014171;28;20781;-55
2023/06/15 11:11:42;;;;;;;4.18;2.83;;;29.30;99.90;;;;;;5019970;28;20244;-55
2023/06/15 11:14:22;;;;;;;4.32;2.78;;;28.60;99.90;;;;;;5019224;28;20201;-57
2023/06/15 11:17:05;;;;;;;5.57;2.90;;;29.30;99.90;;;;;;5015231;28;20212;-55
2023/06/15 11:19:40;;;;;;;3.85;3.03;;;30.00;99.90;;;;;;5016155;28;20891;-55
2023/06/15 11:22:08;;;;;;;5.97;3.05;;;30.80;99.90;;;;;;5016635;28;20205;-58
2023/06/15 11:24:38;;;;;;;9.55;3.20;;;30.60;99.90;;;;;;5013511;28;20304;-55
2023/06/15 11:27:10;;;;;;;5.38;2.95;;;31.20;99.90;;;;;;5023488;28;20284;-56
2023/06/15 11:29:41;;;;;;;4.82;3.17;;;31.30;99.90;;;;;;5015377;28;20203;-55
2023/06/15 11:32:09;;;;;;;4.57;2.80;;;30.60;99.90;;;;;;5011873;28;20224;-55
2023/06/15 11:34:38;;;;;;;5.15;3.15;;;29.90;99.90;;;;;;5021808;28;20830;-58
2023/06/15 11:37:06;;;;;;;6.30;3.10;;;30.10;99.90;;;;;;5024223;28;20205;-55
2023/06/15 11:39:33;;;;;;;5.03;3.17;;;29.80;99.90;;;;;;5021472;28;20264;-55
2023/06/15 11:42:00;;;;;;;4.07;3.58;;;29.10;99.90;;;;;;5010209;28;20375;-56
2023/06/15 11:44:28;;;;;;;4.35;2.75;;;28.70;99.90;;;;;;5019456;28;20981;-55
2023/06/15 11:46:56;;;;;;;6.07;3.15;;;28.20;99.90;;;;;;5025893;28;20280;-55
2023/06/15 11:49:24;;;;;;;4.80;3.20;;;29.40;99.90;;;;;;5025267;28;20205;-55
2023/06/15 11:51:53;;;;;;;7.93;2.92;;;30.50;99.90;;;;;;5018769;28;20209;-55
2023/06/15 11:54:25;;;;;;;5.63;2.65;;;30.60;99.90;;;;;;5019752;28;20219;-55
2023/06/15 11:57:06;;;;;;;5.53;2.88;;;29.90;99.90;;;;;;5017264;28;20538;-57
2023/06/15 11:59:35;;;;;;;5.63;3.17;;;28.70;99.90;;;;;;5017564;28;20196;-55
2023/06/15 12:02:03;;;;;;;4.78;2.92;;;28.10;99.90;;;;;;5017999;28;20742;-55
2023/06/15 12:04:31;;;;;;;4.25;3.00;;;28.00;99.90;;;;;;5021126;28;20212;-55
2023/06/15 12:07:04;;;;;;;6.93;2.90;;;27.70;99.90;;;;;;5025505;28;20219;-55
2023/06/15 12:09:32;;;;;;;4.07;2.72;;;27.50;99.90;;;;;;5019547;28;20230;-55
2023/06/15 12:12:00;;;;;;;3.05;2.80;;;27.50;99.90;;;;;;5026260;28;20236;-55
2023/06/15 12:14:27;;;;;;;4.30;2.85;;;27.80;99.90;;;;;;5024344;28;20212;-55
2023/06/15 12:16:57;;;;;;;3.38;3.03;;;29.40;99.90;;;;;;5025094;28;20208;-55
2023/06/15 12:19:25;;;;;;;3.97;2.92;;;29.80;99.90;;;;;;5021038;28;20193;-60
2023/06/15 12:21:57;;;;;;;3.33;2.65;;;29.10;99.90;;;;;;5020180;28;20200;-55
2023/06/15 12:24:24;;;;;;;5.85;3.35;;;30.60;99.90;;;;;;5010225;28;20254;-55
2023/06/15 12:26:57;;;;;;;4.90;3.17;;;30.00;99.90;;;;;;5014036;28;20205;-55
2023/06/15 12:29:25;;;;;;;3.55;2.90;;;30.60;99.90;;;;;;5017300;28;20203;-56
2023/06/15 12:31:54;;;;;;;7.65;3.55;;;30.90;99.90;;;;;;5013882;28;20262;-55
2023/06/15 12:34:24;;;;;;;4.32;2.92;;;29.90;99.90;;;;;;5018102;28;20228;-56
2023/06/15 12:36:52;;;;;;;5.35;3.10;;;30.80;99.90;;;;;;5015129;28;20266;-55
2023/06/15 12:39:19;;;;;;;4.55;3.17;;;31.40;99.90;;;;;;5021063;28;20283;-61
2023/06/15 12:41:46;;;;;;;6.28;2.80;;;31.50;99.90;;;;;;5018755;28;20243;-55
2023/06/15 12:44:13;;;;;;;4.15;2.83;;;31.80;99.90;;;;;;5011448;28;20201;-59
2023/06/15 12:46:40;;;;;;;3.00;2.70;;;31.10;99.90;;;;;;5015147;28;20214;-56
2023/06/15 12:49:09;;;;;;;4.63;3.10;;;30.50;99.90;;;;;;5013907;28;20200;-56
2023/06/15 12:51:36;;;;;;;3.95;2.90;;;30.40;99.90;;;;;;5015992;28;20309;-55
2023/06/15 12:54:04;;;;;;;6.88;3.30;;;30.50;99.90;;;;;;5015760;28;20208;-55
2023/06/15 12:56:36;;;;;;;3.55;3.13;;;31.50;99.90;;;;;;5014253;28;20704;-57
2023/06/15 12:59:03;;;;;;;3.40;2.90;;;30.50;99.90;;;;;;5012035;28;20209;-58
2023/06/15 13:01:32;;;;;;;3.50;2.95;;;31.30;99.90;;;;;;5017934;28;20229;-58